sensor_id;sensor_type;location;lat;lon;timestamp;temperature;humidity
16273;DHT22;8244;50.044;9.006;2023-07-29T00:03:43;18.30;99.90
16273;DHT22;8244;50.044;9.006;2023-07-29T00:08:46;18.30;99.90
16273;DHT22;8244;50.044;9.006;2023-07-29T00:13:48;18.30;99.90
16273;DHT22;8244;50.044;9.006;2023-07-29T00:18:51;18.20;99.90
16273;DHT22;8244;50.044;9.006;2023-07-29T00:23:54;18.30;99.90
16273;DHT22;8244;50.044;9.006;2023-07-29T00:28:58;18.30;99.90
16273;DHT22;8244;50.044;9.006;2023-07-29T00:33:59;18.30;99.90
16273;DHT22;8244;50.044;9.006;2023-07-29T00:39:02;18.40;99.90
16273;DHT22;8244;50.044;9.006;2023-07-29T00:44:04;18.40;99.90
16273;DHT22;8244;50.044;9.006;2023-07-29T00:49:06;18.40;99.90
16273;DHT22;8244;50.044;9.006;2023-07-29T00:54:09;18.40;99.90
16273;DHT22;8244;50.044;9.006;2023-07-29T00:59:11;18.40;99.90
16273;DHT22;8244;50.044;9.006;2023-07-29T01:04:13;18.50;99.90
16273;DHT22;8244;50.044;9.006;2023-07-29T01:09:22;18.50;99.90
16273;DHT22;8244;50.044;9.006;2023-07-29T01:14:31;18.50;99.90
16273;DHT22;8244;50.044;9.006;2023-07-29T01:19:43;18.50;99.90
16273;DHT22;8244;50.044;9.006;2023-07-29T01:24:49;18.50;99.90
16273;DHT22;8244;50.044;9.006;2023-07-29T01:29:51;18.50;99.90
16273;DHT22;8244;50.044;9.006;2023-07-29T01:34:59;18.60;99.90
16273;DHT22;8244;50.044;9.006;2023-07-29T01:40:04;18.60;99.90
16273;DHT22;8244;50.044;9.006;2023-07-29T01:45:07;18.60;99.90
16273;DHT22;8244;50.044;9.006;2023-07-29T01:50:09;18.60;99.90
16273;DHT22;8244;50.044;9.006;2023-07-29T01:55:12;18.60;99.90
16273;DHT22;8244;50.044;9.006;2023-07-29T02:00:15;18.60;99.90
16273;DHT22;8244;50.044;9.006;2023-07-29T02:05:16;18.60;99.90
16273;DHT22;8244;50.044;9.006;2023-07-29T02:10:19;18.60;99.90
16273;DHT22;8244;50.044;9.006;2023-07-29T02:15:21;18.60;99.90
16273;DHT22;8244;50.044;9.006;2023-07-29T02:20:23;18.60;99.90
16273;DHT22;8244;50.044;9.006;2023-07-29T02:25:25;18.60;99.90
16273;DHT22;8244;50.044;9.006;2023-07-29T02:30:27;18.60;99.90
16273;DHT22;8244;50.044;9.006;2023-07-29T02:35:29;18.50;99.90
16273;DHT22;8244;50.044;9.006;2023-07-29T02:40:32;18.60;99.90
16273;DHT22;8244;50.044;9.006;2023-07-29T02:45:34;18.60;99.90
16273;DHT22;8244;50.044;9.006;2023-07-29T02:50:35;18.60;99.90
16273;DHT22;8244;50.044;9.006;2023-07-29T02:55:40;18.70;99.90
16273;DHT22;8244;50.044;9.006;2023-07-29T03:00:42;18.70;99.90
16273;DHT22;8244;50.044;9.006;2023-07-29T03:05:44;18.70;99.90
16273;DHT22;8244;50.044;9.006;2023-07-29T03:10:47;18.70;99.90
16273;DHT22;8244;50.044;9.006;2023-07-29T03:15:49;18.70;99.90
16273;DHT22;8244;50.044;9.006;2023-07-29T03:20:50;18.70;99.90
16273;DHT22;8244;50.044;9.006;2023-07-29T03:25:54;18.70;99.90
16273;DHT22;8244;50.044;9.006;2023-07-29T03:30:58;18.70;99.90
16273;DHT22;8244;50.044;9.006;2023-07-29T03:36:00;18.70;99.90
16273;DHT22;8244;50.044;9.006;2023-07-29T03:41:03;18.70;99.90
16273;DHT22;8244;50.044;9.006;2023-07-29T03:46:05;18.70;99.90
16273;DHT22;8244;50.044;9.006;2023-07-29T03:51:07;18.70;99.90
16273;DHT22;8244;50.044;9.006;2023-07-29T03:56:10;18.70;99.90
16273;DHT22;8244;50.044;9.006;2023-07-29T04:01:11;18.70;99.90
16273;DHT22;8244;50.044;9.006;2023-07-29T04:06:14;18.60;99.90
16273;DHT22;8244;50.044;9.006;2023-07-29T04:11:17;18.60;99.90
16273;DHT22;8244;50.044;9.006;2023-07-29T04:16:19;18.60;99.90
16273;DHT22;8244;50.044;9.006;2023-07-29T04:21:20;18.60;99.90
16273;DHT22;8244;50.044;9.006;2023-07-29T04:26:23;18.50;99.90
16273;DHT22;8244;50.044;9.006;2023-07-29T04:31:25;18.50;99.90
16273;DHT22;8244;50.044;9.006;2023-07-29T04:36:27;18.60;99.90
16273;DHT22;8244;50.044;9.006;2023-07-29T04:41:30;18.60;99.90
16273;DHT22;8244;50.044;9.006;2023-07-29T04:46:31;18.60;99.90
16273;DHT22;8244;50.044;9.006;2023-07-29T04:51:33;18.70;99.90
16273;DHT22;8244;50.044;9.006;2023-07-29T04:56:36;18.70;99.90
16273;DHT22;8244;50.044;9.006;2023-07-29T05:01:38;18.80;99.90
16273;DHT22;8244;50.044;9.006;2023-07-29T05:06:39;18.80;99.90
16273;DHT22;8244;50.044;9.006;2023-07-29T05:11:42;18.90;99.90
16273;DHT22;8244;50.044;9.006;2023-07-29T05:16:47;18.90;99.90
16273;DHT22;8244;50.044;9.006;2023-07-29T05:21:48;19.00;99.90
16273;DHT22;8244;50.044;9.006;2023-07-29T05:26:51;19.10;99.90
16273;DHT22;8244;50.044;9.006;2023-07-29T05:31:53;19.20;99.90
16273;DHT22;8244;50.044;9.006;2023-07-29T05:36:55;19.20;99.90
16273;DHT22;8244;50.044;9.006;2023-07-29T05:41:58;19.30;99.90
16273;DHT22;8244;50.044;9.006;2023-07-29T05:46:59;19.40;99.90
16273;DHT22;8244;50.044;9.006;2023-07-29T05:52:01;19.50;99.90
16273;DHT22;8244;50.044;9.006;2023-07-29T05:57:05;19.60;99.90
16273;DHT22;8244;50.044;9.006;2023-07-29T06:02:07;19.70;99.90
16273;DHT22;8244;50.044;9.006;2023-07-29T06:07:09;19.70;99.90
16273;DHT22;8244;50.044;9.006;2023-07-29T06:12:12;19.80;99.90
16273;DHT22;8244;50.044;9.006;2023-07-29T06:17:13;19.90;99.90
16273;DHT22;8244;50.044;9.006;2023-07-29T06:22:15;20.00;99.90
16273;DHT22;8244;50.044;9.006;2023-07-29T06:27:18;20.20;99.90
16273;DHT22;8244;50.044;9.006;2023-07-29T06:32:20;20.40;99.90
16273;DHT22;8244;50.044;9.006;2023-07-29T06:37:22;20.40;99.90
16273;DHT22;8244;50.044;9.006;2023-07-29T06:42:25;20.50;99.90
16273;DHT22;8244;50.044;9.006;2023-07-29T06:47:26;20.50;99.90
16273;DHT22;8244;50.044;9.006;2023-07-29T06:52:28;20.60;99.90
16273;DHT22;8244;50.044;9.006;2023-07-29T06:57:31;20.60;99.90
16273;DHT22;8244;50.044;9.006;2023-07-29T07:02:33;20.70;99.90
16273;DHT22;8244;50.044;9.006;2023-07-29T07:07:34;20.70;99.90
16273;DHT22;8244;50.044;9.006;2023-07-29T07:12:38;20.80;99.90
16273;DHT22;8244;50.044;9.006;2023-07-29T07:17:39;20.80;99.90
16273;DHT22;8244;50.044;9.006;2023-07-29T07:22:41;20.90;99.90
16273;DHT22;8244;50.044;9.006;2023-07-29T07:27:44;20.90;99.90
16273;DHT22;8244;50.044;9.006;2023-07-29T07:32:46;20.90;99.90
16273;DHT22;8244;50.044;9.006;2023-07-29T07:37:47;20.90;99.90
16273;DHT22;8244;50.044;9.006;2023-07-29T07:42:51;20.80;99.90
16273;DHT22;8244;50.044;9.006;2023-07-29T07:47:52;20.90;99.90
16273;DHT22;8244;50.044;9.006;2023-07-29T07:52:54;20.80;99.90
16273;DHT22;8244;50.044;9.006;2023-07-29T07:57:57;20.80;99.90
16273;DHT22;8244;50.044;9.006;2023-07-29T08:02:59;20.70;99.90
16273;DHT22;8244;50.044;9.006;2023-07-29T08:08:00;20.70;99.90
16273;DHT22;8244;50.044;9.006;2023-07-29T08:13:04;20.60;99.90
16273;DHT22;8244;50.044;9.006;2023-07-29T08:18:05;20.70;99.90
16273;DHT22;8244;50.044;9.006;2023-07-29T08:23:07;20.70;99.90
16273;DHT22;8244;50.044;9.006;2023-07-29T08:28:10;20.90;99.90
16273;DHT22;8244;50.044;9.006;2023-07-29T08:33:12;21.00;99.90
16273;DHT22;8244;50.044;9.006;2023-07-29T08:38:14;21.00;99.90
16273;DHT22;8244;50.044;9.006;2023-07-29T08:43:19;21.10;99.90
16273;DHT22;8244;50.044;9.006;2023-07-29T08:48:29;21.30;99.90
16273;DHT22;8244;50.044;9.006;2023-07-29T08:53:33;21.60;99.90
16273;DHT22;8244;50.044;9.006;2023-07-29T08:58:37;22.10;99.90
16273;DHT22;8244;50.044;9.006;2023-07-29T09:03:41;22.60;99.90
16273;DHT22;8244;50.044;9.006;2023-07-29T09:08:43;23.30;99.90
16273;DHT22;8244;50.044;9.006;2023-07-29T09:13:46;23.90;99.90
16273;DHT22;8244;50.044;9.006;2023-07-29T09:18:48;24.20;99.90
16273;DHT22;8244;50.044;9.006;2023-07-29T09:23:51;24.40;99.90
16273;DHT22;8244;50.044;9.006;2023-07-29T09:28:56;24.50;99.90
16273;DHT22;8244;50.044;9.006;2023-07-29T09:33:59;24.60;99.90
16273;DHT22;8244;50.044;9.006;2023-07-29T09:39:01;24.90;99.90
16273;DHT22;8244;50.044;9.006;2023-07-29T09:44:06;25.10;99.90
16273;DHT22;8244;50.044;9.006;2023-07-29T09:49:08;25.40;99.90
16273;DHT22;8244;50.044;9.006;2023-07-29T09:54:11;26.20;99.90
16273;DHT22;8244;50.044;9.006;2023-07-29T09:59:18;26.40;99.90
16273;DHT22;8244;50.044;9.006;2023-07-29T10:04:21;26.60;99.90
16273;DHT22;8244;50.044;9.006;2023-07-29T10:09:23;27.40;99.90
16273;DHT22;8244;50.044;9.006;2023-07-29T10:14:28;28.00;99.90
16273;DHT22;8244;50.044;9.006;2023-07-29T10:19:29;28.00;99.90
16273;DHT22;8244;50.044;9.006;2023-07-29T10:24:32;28.40;99.90
16273;DHT22;8244;50.044;9.006;2023-07-29T10:29:38;28.60;99.90
16273;DHT22;8244;50.044;9.006;2023-07-29T10:34:40;29.40;99.90
16273;DHT22;8244;50.044;9.006;2023-07-29T10:39:53;29.90;99.90
16273;DHT22;8244;50.044;9.006;2023-07-29T10:44:56;30.50;99.90
16273;DHT22;8244;50.044;9.006;2023-07-29T10:49:58;30.70;99.90
16273;DHT22;8244;50.044;9.006;2023-07-29T10:55:01;31.20;98.10
16273;DHT22;8244;50.044;9.006;2023-07-29T11:00:06;31.30;96.30
16273;DHT22;8244;50.044;9.006;2023-07-29T11:05:17;31.50;96.40
16273;DHT22;8244;50.044;9.006;2023-07-29T11:10:19;32.10;96.50
16273;DHT22;8244;50.044;9.006;2023-07-29T11:15:24;32.20;92.30
16273;DHT22;8244;50.044;9.006;2023-07-29T11:20:29;32.50;92.70
16273;DHT22;8244;50.044;9.006;2023-07-29T11:25:32;32.20;93.40
16273;DHT22;8244;50.044;9.006;2023-07-29T11:30:40;32.10;90.00
16273;DHT22;8244;50.044;9.006;2023-07-29T11:35:41;32.10;90.20
16273;DHT22;8244;50.044;9.006;2023-07-29T11:40:43;32.90;90.90
16273;DHT22;8244;50.044;9.006;2023-07-29T11:45:46;32.80;90.50
16273;DHT22;8244;50.044;9.006;2023-07-29T11:50:48;32.60;87.80
16273;DHT22;8244;50.044;9.006;2023-07-29T11:55:51;32.50;88.60
16273;DHT22;8244;50.044;9.006;2023-07-29T12:00:54;32.90;90.00
16273;DHT22;8244;50.044;9.006;2023-07-29T12:05:57;33.80;88.40
16273;DHT22;8244;50.044;9.006;2023-07-29T12:10:59;33.60;86.10
16273;DHT22;8244;50.044;9.006;2023-07-29T12:16:03;33.60;84.80
16273;DHT22;8244;50.044;9.006;2023-07-29T12:21:05;33.30;82.50
16273;DHT22;8244;50.044;9.006;2023-07-29T12:26:06;32.60;86.00
16273;DHT22;8244;50.044;9.006;2023-07-29T12:31:09;32.60;89.10
16273;DHT22;8244;50.044;9.006;2023-07-29T12:36:11;32.30;90.50
16273;DHT22;8244;50.044;9.006;2023-07-29T12:41:13;32.30;90.70
16273;DHT22;8244;50.044;9.006;2023-07-29T12:46:16;32.40;90.80
16273;DHT22;8244;50.044;9.006;2023-07-29T12:51:17;32.30;90.40
16273;DHT22;8244;50.044;9.006;2023-07-29T12:56:19;32.30;92.20
16273;DHT22;8244;50.044;9.006;2023-07-29T13:01:22;32.90;90.50
16273;DHT22;8244;50.044;9.006;2023-07-29T13:06:24;32.60;90.00
16273;DHT22;8244;50.044;9.006;2023-07-29T13:11:25;32.10;91.40
16273;DHT22;8244;50.044;9.006;2023-07-29T13:16:29;32.30;91.90
16273;DHT22;8244;50.044;9.006;2023-07-29T13:21:30;32.50;90.70
16273;DHT22;8244;50.044;9.006;2023-07-29T13:26:32;32.50;88.70
16273;DHT22;8244;50.044;9.006;2023-07-29T13:31:35;32.30;86.80
16273;DHT22;8244;50.044;9.006;2023-07-29T13:36:37;32.20;79.20
16273;DHT22;8244;50.044;9.006;2023-07-29T13:41:38;31.20;75.30
16273;DHT22;8244;50.044;9.006;2023-07-29T13:46:42;31.20;75.20
16273;DHT22;8244;50.044;9.006;2023-07-29T13:51:44;31.00;75.60
16273;DHT22;8244;50.044;9.006;2023-07-29T13:56:46;30.90;75.00
16273;DHT22;8244;50.044;9.006;2023-07-29T14:01:49;31.00;73.00
16273;DHT22;8244;50.044;9.006;2023-07-29T14:06:51;31.20;75.50
16273;DHT22;8244;50.044;9.006;2023-07-29T14:11:53;31.50;75.20
16273;DHT22;8244;50.044;9.006;2023-07-29T14:16:57;31.00;73.20
16273;DHT22;8244;50.044;9.006;2023-07-29T14:21:58;30.90;73.20
16273;DHT22;8244;50.044;9.006;2023-07-29T14:27:00;30.60;72.70
16273;DHT22;8244;50.044;9.006;2023-07-29T14:32:05;30.40;71.40
16273;DHT22;8244;50.044;9.006;2023-07-29T14:37:07;30.80;73.20
16273;DHT22;8244;50.044;9.006;2023-07-29T14:42:08;30.90;74.00
16273;DHT22;8244;50.044;9.006;2023-07-29T14:47:11;31.10;72.90
16273;DHT22;8244;50.044;9.006;2023-07-29T14:52:13;31.30;70.20
16273;DHT22;8244;50.044;9.006;2023-07-29T14:57:15;31.20;72.80
16273;DHT22;8244;50.044;9.006;2023-07-29T15:02:19;31.30;75.50
16273;DHT22;8244;50.044;9.006;2023-07-29T15:07:23;31.50;73.00
16273;DHT22;8244;50.044;9.006;2023-07-29T15:12:24;30.90;72.30
16273;DHT22;8244;50.044;9.006;2023-07-29T15:17:28;31.00;72.60
16273;DHT22;8244;50.044;9.006;2023-07-29T15:22:29;30.80;73.90
16273;DHT22;8244;50.044;9.006;2023-07-29T15:27:32;30.90;72.50
16273;DHT22;8244;50.044;9.006;2023-07-29T15:32:35;30.40;71.40
16273;DHT22;8244;50.044;9.006;2023-07-29T15:37:37;30.00;72.60
16273;DHT22;8244;50.044;9.006;2023-07-29T15:42:39;29.90;73.30
16273;DHT22;8244;50.044;9.006;2023-07-29T15:47:42;29.60;75.70
16273;DHT22;8244;50.044;9.006;2023-07-29T15:52:43;29.60;74.40
16273;DHT22;8244;50.044;9.006;2023-07-29T15:57:45;30.00;75.00
16273;DHT22;8244;50.044;9.006;2023-07-29T16:02:48;30.30;77.70
16273;DHT22;8244;50.044;9.006;2023-07-29T16:07:50;30.10;73.10
16273;DHT22;8244;50.044;9.006;2023-07-29T16:12:53;29.60;74.90
16273;DHT22;8244;50.044;9.006;2023-07-29T16:17:56;29.40;74.20
16273;DHT22;8244;50.044;9.006;2023-07-29T16:23:00;29.30;74.60
16273;DHT22;8244;50.044;9.006;2023-07-29T16:28:01;29.20;75.90
16273;DHT22;8244;50.044;9.006;2023-07-29T16:33:04;29.00;74.80
16273;DHT22;8244;50.044;9.006;2023-07-29T16:38:06;28.60;75.40
16273;DHT22;8244;50.044;9.006;2023-07-29T16:43:08;28.30;79.50
16273;DHT22;8244;50.044;9.006;2023-07-29T16:48:11;28.20;81.90
16273;DHT22;8244;50.044;9.006;2023-07-29T16:53:12;28.20;82.40
16273;DHT22;8244;50.044;9.006;2023-07-29T16:58:14;28.40;82.60
16273;DHT22;8244;50.044;9.006;2023-07-29T17:03:18;28.50;84.30
16273;DHT22;8244;50.044;9.006;2023-07-29T17:08:20;28.50;82.60
16273;DHT22;8244;50.044;9.006;2023-07-29T17:13:22;28.50;83.80
16273;DHT22;8244;50.044;9.006;2023-07-29T17:18:25;28.40;82.40
16273;DHT22;8244;50.044;9.006;2023-07-29T17:23:26;28.40;82.40
16273;DHT22;8244;50.044;9.006;2023-07-29T17:28:28;28.10;83.20
16273;DHT22;8244;50.044;9.006;2023-07-29T17:33:31;28.10;83.20
16273;DHT22;8244;50.044;9.006;2023-07-29T17:38:34;28.10;83.40
16273;DHT22;8244;50.044;9.006;2023-07-29T17:43:36;28.20;81.50
16273;DHT22;8244;50.044;9.006;2023-07-29T17:48:46;28.00;81.40
16273;DHT22;8244;50.044;9.006;2023-07-29T17:53:47;27.90;81.90
16273;DHT22;8244;50.044;9.006;2023-07-29T17:58:49;27.70;80.80
16273;DHT22;8244;50.044;9.006;2023-07-29T18:03:53;27.60;82.90
16273;DHT22;8244;50.044;9.006;2023-07-29T18:08:55;27.50;83.20
16273;DHT22;8244;50.044;9.006;2023-07-29T18:13:56;27.40;81.90
16273;DHT22;8244;50.044;9.006;2023-07-29T18:18:59;27.30;81.80
16273;DHT22;8244;50.044;9.006;2023-07-29T18:24:01;27.30;85.10
16273;DHT22;8244;50.044;9.006;2023-07-29T18:29:02;27.20;84.40
16273;DHT22;8244;50.044;9.006;2023-07-29T18:34:06;27.00;85.20
16273;DHT22;8244;50.044;9.006;2023-07-29T18:39:07;26.80;86.70
16273;DHT22;8244;50.044;9.006;2023-07-29T18:44:09;26.70;88.10
16273;DHT22;8244;50.044;9.006;2023-07-29T18:49:12;26.50;88.50
16273;DHT22;8244;50.044;9.006;2023-07-29T18:54:14;26.30;88.60
16273;DHT22;8244;50.044;9.006;2023-07-29T18:59:16;26.20;89.60
16273;DHT22;8244;50.044;9.006;2023-07-29T19:04:22;26.00;89.90
16273;DHT22;8244;50.044;9.006;2023-07-29T19:09:24;25.90;89.90
16273;DHT22;8244;50.044;9.006;2023-07-29T19:14:25;25.70;90.20
16273;DHT22;8244;50.044;9.006;2023-07-29T19:19:28;25.60;90.30
16273;DHT22;8244;50.044;9.006;2023-07-29T19:24:30;25.40;90.80
16273;DHT22;8244;50.044;9.006;2023-07-29T19:29:32;25.30;91.50
16273;DHT22;8244;50.044;9.006;2023-07-29T19:34:35;25.20;91.60
16273;DHT22;8244;50.044;9.006;2023-07-29T19:39:39;25.10;91.60
16273;DHT22;8244;50.044;9.006;2023-07-29T19:44:41;24.90;92.80
16273;DHT22;8244;50.044;9.006;2023-07-29T19:49:44;24.80;93.10
16273;DHT22;8244;50.044;9.006;2023-07-29T19:54:46;24.70;92.90
16273;DHT22;8244;50.044;9.006;2023-07-29T19:59:48;24.50;93.20
16273;DHT22;8244;50.044;9.006;2023-07-29T20:04:51;24.20;93.70
16273;DHT22;8244;50.044;9.006;2023-07-29T20:09:55;24.20;94.10
16273;DHT22;8244;50.044;9.006;2023-07-29T20:14:56;24.00;94.50
16273;DHT22;8244;50.044;9.006;2023-07-29T20:20:02;24.00;95.00
16273;DHT22;8244;50.044;9.006;2023-07-29T20:25:05;23.80;95.50
16273;DHT22;8244;50.044;9.006;2023-07-29T20:30:07;23.70;96.30
16273;DHT22;8244;50.044;9.006;2023-07-29T20:35:10;23.50;96.80
16273;DHT22;8244;50.044;9.006;2023-07-29T20:40:12;23.50;97.50
16273;DHT22;8244;50.044;9.006;2023-07-29T20:45:14;23.50;98.50
16273;DHT22;8244;50.044;9.006;2023-07-29T20:50:17;23.40;99.90
16273;DHT22;8244;50.044;9.006;2023-07-29T20:55:19;23.10;99.90
16273;DHT22;8244;50.044;9.006;2023-07-29T21:00:21;22.80;99.90
16273;DHT22;8244;50.044;9.006;2023-07-29T21:05:24;22.70;99.90
16273;DHT22;8244;50.044;9.006;2023-07-29T21:10:25;22.50;99.90
16273;DHT22;8244;50.044;9.006;2023-07-29T21:15:27;22.50;99.90
16273;DHT22;8244;50.044;9.006;2023-07-29T21:20:30;22.40;99.90
16273;DHT22;8244;50.044;9.006;2023-07-29T21:25:33;22.30;99.90
16273;DHT22;8244;50.044;9.006;2023-07-29T21:30:34;22.20;99.90
16273;DHT22;8244;50.044;9.006;2023-07-29T21:35:38;22.10;99.90
16273;DHT22;8244;50.044;9.006;2023-07-29T21:40:39;22.00;99.90
16273;DHT22;8244;50.044;9.006;2023-07-29T21:45:41;22.00;99.90
16273;DHT22;8244;50.044;9.006;2023-07-29T21:50:44;21.90;99.90
16273;DHT22;8244;50.044;9.006;2023-07-29T21:55:46;21.80;99.90
16273;DHT22;8244;50.044;9.006;2023-07-29T22:00:50;21.80;99.90
16273;DHT22;8244;50.044;9.006;2023-07-29T22:05:53;21.80;99.90
16273;DHT22;8244;50.044;9.006;2023-07-29T22:11:01;21.80;99.90
16273;DHT22;8244;50.044;9.006;2023-07-29T22:16:03;21.70;99.90
16273;DHT22;8244;50.044;9.006;2023-07-29T22:21:06;21.60;99.90
16273;DHT22;8244;50.044;9.006;2023-07-29T22:26:08;21.60;99.90
16273;DHT22;8244;50.044;9.006;2023-07-29T22:31:09;21.50;99.90
16273;DHT22;8244;50.044;9.006;2023-07-29T22:36:13;21.50;99.90
16273;DHT22;8244;50.044;9.006;2023-07-29T22:41:14;21.40;99.90
16273;DHT22;8244;50.044;9.006;2023-07-29T22:46:16;21.30;99.90
16273;DHT22;8244;50.044;9.006;2023-07-29T22:51:19;21.30;99.90
16273;DHT22;8244;50.044;9.006;2023-07-29T22:56:21;21.30;99.90
16273;DHT22;8244;50.044;9.006;2023-07-29T23:01:22;21.30;99.90
16273;DHT22;8244;50.044;9.006;2023-07-29T23:06:25;21.20;99.90
16273;DHT22;8244;50.044;9.006;2023-07-29T23:11:27;21.10;99.90
16273;DHT22;8244;50.044;9.006;2023-07-29T23:16:29;21.10;99.90
16273;DHT22;8244;50.044;9.006;2023-07-29T23:21:32;21.10;99.90
16273;DHT22;8244;50.044;9.006;2023-07-29T23:26:34;21.10;99.90
16273;DHT22;8244;50.044;9.006;2023-07-29T23:31:35;21.10;99.90
16273;DHT22;8244;50.044;9.006;2023-07-29T23:36:38;21.10;99.90
16273;DHT22;8244;50.044;9.006;2023-07-29T23:41:40;21.00;99.90
16273;DHT22;8244;50.044;9.006;2023-07-29T23:46:42;21.00;99.90
16273;DHT22;8244;50.044;9.006;2023-07-29T23:51:45;21.00;99.90
16273;DHT22;8244;50.044;9.006;2023-07-29T23:56:46;21.00;99.90
